Time;durP1;ratioP1;P1;durP2;ratioP2;P2;SDS_P1;SDS_P2;PMS_P1;PMS_P2;Temp;Humidity;BMP_temperature;BMP_pressure;BME280_temperature;BME280_humidity;BME280_pressure;Samples;Min_cycle;Max_cycle;Signal;HPM_P1;HPM_P2
2021/05/28 00:00:23;;;;;;;4.43;2.10;;;;;;;16.82;71.31;100648.69;5156407;27;20045;-78
2021/05/28 00:03:29;;;;;;;8.70;2.58;;;;;;;16.78;71.98;100663.59;5156012;27;20064;-78
2021/05/28 00:06:33;;;;;;;7.93;2.10;;;;;;;16.75;72.23;100663.94;5156268;27;20389;-78
2021/05/28 00:09:39;;;;;;;12.88;2.40;;;;;;;16.70;72.78;100663.59;5156505;27;20054;-78
2021/05/28 00:12:44;;;;;;;6.65;2.20;;;;;;;16.71;73.33;100670.72;5143404;27;20499;-78
2021/05/28 00:15:48;;;;;;;6.40;2.28;;;;;;;16.64;74.18;100677.81;5156133;27;20046;-80
2021/05/28 00:18:54;;;;;;;10.15;3.55;;;;;;;16.67;74.15;100682.88;5156115;27;20397;-77
2021/05/28 00:21:59;;;;;;;7.38;2.35;;;;;;;16.64;74.38;100689.47;5156302;27;20042;-78
2021/05/28 00:25:04;;;;;;;4.93;1.83;;;;;;;16.62;74.35;100690.66;5155864;27;20045;-77
2021/05/28 00:28:08;;;;;;;7.93;2.47;;;;;;;16.55;75.25;100692.34;5155903;27;20049;-77
2021/05/28 00:31:13;;;;;;;8.88;2.08;;;;;;;16.56;75.28;100692.19;5155877;27;20159;-77
2021/05/28 00:34:17;;;;;;;9.80;2.00;;;;;;;16.55;75.56;100693.19;5155839;27;20053;-78
2021/05/28 00:37:22;;;;;;;8.05;2.10;;;;;;;16.46;76.14;100699.56;5155801;27;20049;-78
2021/05/28 00:40:27;;;;;;;6.25;2.40;;;;;;;16.43;76.68;100701.75;5155757;27;20053;-78
2021/05/28 00:43:31;;;;;;;7.47;2.15;;;;;;;16.31;77.14;100692.22;5155718;27;20042;-78
2021/05/28 00:46:35;;;;;;;8.20;2.67;;;;;;;16.27;77.34;100700.66;5142912;27;20421;-78
2021/05/28 00:49:40;;;;;;;8.02;2.60;;;;;;;16.12;78.71;100702.28;5155630;27;20054;-79
2021/05/28 00:52:52;;;;;;;8.60;2.85;;;;;;;16.04;79.45;100702.28;5155660;27;20061;-78
2021/05/28 00:55:58;;;;;;;9.55;2.53;;;;;;;16.04;79.71;100709.53;5155591;27;20049;-78
2021/05/28 00:59:03;;;;;;;9.65;2.72;;;;;;;16.06;79.64;100710.22;5155512;27;20049;-78
2021/05/28 01:02:07;;;;;;;6.30;2.45;;;;;;;16.05;80.19;100709.38;5155570;27;20061;-79
2021/05/28 01:05:12;;;;;;;6.75;3.05;;;;;;;16.12;79.65;100720.41;5155570;27;20046;-78
2021/05/28 01:08:17;;;;;;;8.15;3.15;;;;;;;16.11;80.12;100724.13;5142746;27;20049;-77
2021/05/28 01:11:21;;;;;;;9.57;3.28;;;;;;;16.05;80.14;100728.31;5142956;27;20484;-79
2021/05/28 01:14:26;;;;;;;10.25;3.30;;;;;;;16.00;80.27;100721.69;5143034;27;20053;-79
2021/05/28 01:17:30;;;;;;;11.23;3.70;;;;;;;15.97;80.73;100730.97;5155385;27;20054;-79
2021/05/28 01:20:36;;;;;;;9.82;4.18;;;;;;;16.05;80.66;100727.47;5155695;27;20062;-79
2021/05/28 01:23:40;;;;;;;10.38;3.25;;;;;;;16.02;80.58;100727.81;5155606;27;20074;-79
2021/05/28 01:26:45;;;;;;;8.65;2.92;;;;;;;16.01;80.72;100732.38;5155361;27;20055;-78
2021/05/28 01:29:49;;;;;;;6.45;2.80;;;;;;;16.06;80.82;100738.16;5155308;27;20050;-79
2021/05/28 01:32:54;;;;;;;9.35;3.38;;;;;;;15.96;80.75;100739.25;5155374;27;20054;-79
2021/05/28 01:35:59;;;;;;;11.50;3.10;;;;;;;15.84;81.60;100748.66;5156310;27;20041;-78
2021/05/28 01:39:04;;;;;;;11.02;3.05;;;;;;;15.85;81.48;100743.06;5146339;27;20049;-79
2021/05/28 01:42:08;;;;;;;8.05;3.30;;;;;;;15.85;82.24;100756.63;5159099;27;20050;-79
2021/05/28 01:45:14;;;;;;;13.48;3.53;;;;;;;15.82;82.33;100762.38;5146355;27;20050;-78
2021/05/28 01:48:18;;;;;;;12.00;3.25;;;;;;;15.80;82.38;100761.66;5159022;27;20050;-79
2021/05/28 01:51:23;;;;;;;8.98;3.40;;;;;;;15.81;82.81;100760.66;5158970;27;20378;-78
2021/05/28 01:54:27;;;;;;;9.07;3.40;;;;;;;15.82;82.83;100754.25;5159106;27;20050;-79
2021/05/28 01:57:32;;;;;;;14.60;4.82;;;;;;;15.83;82.54;100753.22;5157862;27;20050;-78
2021/05/28 02:00:37;;;;;;;12.63;3.97;;;;;;;15.80;83.05;100758.94;5158789;27;20108;-79
2021/05/28 02:03:42;;;;;;;10.82;3.85;;;;;;;15.78;83.07;100757.41;5146276;27;20062;-78
2021/05/28 02:06:47;;;;;;;8.63;3.33;;;;;;;15.72;82.92;100756.19;5158659;27;20049;-79
2021/05/28 02:09:51;;;;;;;10.05;4.00;;;;;;;15.80;83.11;100758.94;5158172;27;20124;-79
2021/05/28 02:12:56;;;;;;;9.52;4.13;;;;;;;15.75;83.15;100761.28;5158501;27;20054;-79
2021/05/28 02:16:00;;;;;;;9.60;4.00;;;;;;;15.69;83.10;100755.66;5158370;27;20050;-79
2021/05/28 02:19:07;;;;;;;11.00;4.18;;;;;;;15.70;83.20;100758.22;5158320;27;20050;-79
2021/05/28 02:22:12;;;;;;;6.82;3.63;;;;;;;15.72;83.21;100750.78;5158276;27;20062;-79
2021/05/28 02:25:17;;;;;;;9.95;4.05;;;;;;;15.63;83.25;100750.88;5145391;27;20045;-79
2021/05/28 02:28:21;;;;;;;7.28;3.80;;;;;;;15.55;83.54;100755.19;5158129;27;20045;-78
2021/05/28 02:31:26;;;;;;;6.25;3.45;;;;;;;15.63;83.75;100749.00;5157837;27;20041;-79
2021/05/28 02:34:30;;;;;;;6.35;3.65;;;;;;;15.57;83.66;100755.06;5145391;27;20070;-79
2021/05/28 02:37:35;;;;;;;8.27;3.95;;;;;;;15.51;84.03;100761.94;5157908;27;20496;-79
2021/05/28 02:40:39;;;;;;;7.30;3.90;;;;;;;15.42;84.42;100757.44;5157885;27;20397;-79
2021/05/28 02:43:43;;;;;;;8.98;3.70;;;;;;;15.46;84.30;100755.28;5157909;27;20042;-79
2021/05/28 02:46:48;;;;;;;9.02;4.00;;;;;;;15.49;84.48;100765.81;5144409;27;20062;-79
2021/05/28 02:49:54;;;;;;;9.35;3.78;;;;;;;15.54;84.03;100761.63;5157696;27;20049;-79
2021/05/28 02:53:02;;;;;;;8.10;3.80;;;;;;;15.61;84.36;100767.25;5157671;27;20066;-78
2021/05/28 02:56:07;;;;;;;8.68;3.35;;;;;;;15.62;83.87;100777.09;5157882;27;20053;-78
2021/05/28 02:59:12;;;;;;;10.45;3.50;;;;;;;15.60;83.63;100788.06;5144800;27;20057;-78
2021/05/28 03:02:18;;;;;;;7.93;3.67;;;;;;;15.58;82.79;100778.41;5144790;27;20461;-78
2021/05/28 03:05:23;;;;;;;10.45;3.53;;;;;;;15.58;82.42;100781.09;5157185;27;20506;-79
2021/05/28 03:08:27;;;;;;;9.20;3.65;;;;;;;15.50;82.39;100781.88;5157060;27;20074;-79
2021/05/28 03:11:32;;;;;;;11.20;3.78;;;;;;;15.47;82.83;100789.47;5157333;27;20050;-78
2021/05/28 03:14:36;;;;;;;8.32;3.60;;;;;;;15.41;82.85;100784.63;5157251;27;20485;-79
2021/05/28 03:17:45;;;;;;;10.85;3.92;;;;;;;15.32;82.96;100790.97;5157446;27;20053;-79
2021/05/28 03:21:20;;;;;;;12.02;4.38;;;;;;;15.25;83.05;100790.75;5144063;27;20049;-78
2021/05/28 03:24:24;;;;;;;10.02;3.88;;;;;;;15.15;84.83;100789.13;5157038;27;20385;-79
2021/05/28 03:27:29;;;;;;;12.30;3.95;;;;;;;15.10;85.09;100788.72;5144214;27;20373;-78
2021/05/28 03:30:33;;;;;;;9.90;4.15;;;;;;;14.99;85.66;100785.25;5156942;27;20046;-78
2021/05/28 03:33:38;;;;;;;10.68;5.00;;;;;;;15.01;85.45;100795.88;5143977;27;20058;-79
2021/05/28 03:36:43;;;;;;;11.07;4.30;;;;;;;14.98;85.33;100797.06;5156830;27;20045;-79
2021/05/28 03:39:48;;;;;;;7.68;4.90;;;;;;;14.97;85.04;100798.06;5156681;27;20084;-78
2021/05/28 03:42:53;;;;;;;8.45;5.00;;;;;;;14.98;84.20;100799.78;5156710;27;20049;-79
2021/05/28 03:45:57;;;;;;;8.30;5.00;;;;;;;14.99;83.80;100798.75;5156662;27;20076;-79
2021/05/28 03:49:01;;;;;;;9.50;4.70;;;;;;;15.01;84.50;100803.19;5156275;27;20054;-79
2021/05/28 03:52:06;;;;;;;10.38;4.82;;;;;;;14.91;84.71;100803.25;5156537;27;20065;-78
2021/05/28 03:55:10;;;;;;;10.35;4.57;;;;;;;14.96;84.88;100814.44;5143685;27;20069;-79
2021/05/28 03:58:15;;;;;;;11.98;4.50;;;;;;;15.00;84.53;100807.72;5155371;27;20049;-79
2021/05/28 04:01:19;;;;;;;11.45;4.68;;;;;;;15.01;84.49;100812.09;5156661;27;20415;-79
2021/05/28 04:04:24;;;;;;;9.30;4.70;;;;;;;15.09;84.14;100800.53;5156071;27;20066;-78
2021/05/28 04:07:28;;;;;;;6.35;4.95;;;;;;;15.17;83.31;100808.75;5156283;27;20046;-78
2021/05/28 04:10:33;;;;;;;9.52;4.85;;;;;;;15.33;82.95;100812.47;5156239;27;20050;-78
2021/05/28 04:13:37;;;;;;;13.98;5.50;;;;;;;15.52;82.13;100814.22;5156182;27;20053;-79
2021/05/28 04:16:42;;;;;;;10.68;5.20;;;;;;;15.72;81.55;100806.78;5156156;27;20077;-79
2021/05/28 04:19:46;;;;;;;8.88;5.03;;;;;;;15.86;80.21;100815.19;5143390;27;20053;-79
2021/05/28 04:22:51;;;;;;;11.63;4.93;;;;;;;16.10;79.66;100826.19;5156016;27;20057;-79
2021/05/28 04:25:56;;;;;;;13.98;5.53;;;;;;;16.22;78.72;100821.34;5143262;27;20057;-79
2021/05/28 04:29:01;;;;;;;10.55;5.93;;;;;;;16.37;78.04;100822.47;5155889;27;20116;-79
2021/05/28 04:32:05;;;;;;;10.63;6.35;;;;;;;16.56;77.82;100824.13;5155557;27;20049;-79
2021/05/28 04:35:10;;;;;;;11.25;6.00;;;;;;;16.68;77.39;100826.41;5155810;27;20046;-79
2021/05/28 04:38:14;;;;;;;11.38;6.25;;;;;;;16.66;77.19;100841.13;5155657;27;20054;-79
2021/05/28 04:41:19;;;;;;;13.13;6.30;;;;;;;16.64;77.02;100852.13;5142981;27;20479;-79
2021/05/28 04:44:23;;;;;;;18.50;5.85;;;;;;;16.75;77.24;100853.72;5155614;27;20054;-79
2021/05/28 04:47:28;;;;;;;8.52;5.07;;;;;;;16.68;76.13;100847.22;5142756;27;20069;-79
2021/05/28 04:50:33;;;;;;;11.65;5.20;;;;;;;16.53;75.27;100859.69;5155521;27;20053;-79
2021/05/28 04:53:39;;;;;;;11.45;5.65;;;;;;;16.23;76.74;100861.84;5155602;27;20042;-79
2021/05/28 04:56:44;;;;;;;9.30;6.10;;;;;;;16.18;77.26;100866.88;5142429;27;20050;-79
2021/05/28 04:59:49;;;;;;;10.60;6.15;;;;;;;16.11;77.13;100865.81;5155245;27;20057;-79
2021/05/28 05:02:53;;;;;;;107.72;89.65;;;;;;;16.21;76.89;100871.13;5155519;27;20046;-78
2021/05/28 05:05:59;;;;;;;24.00;17.25;;;;;;;16.36;76.61;100872.25;5155451;27;20031;-79
2021/05/28 05:09:04;;;;;;;9.57;7.07;;;;;;;16.43;75.92;100875.16;5155145;27;20047;-79
2021/05/28 05:12:09;;;;;;;15.32;6.72;;;;;;;16.62;75.56;100865.00;5133984;27;20507;-79
2021/05/28 05:15:14;;;;;;;14.25;6.32;;;;;;;16.94;74.96;100863.47;5147119;27;20060;-79
2021/05/28 05:18:20;;;;;;;11.25;6.43;;;;;;;17.43;73.40;100876.19;5146726;27;20092;-79
2021/05/28 05:21:25;;;;;;;8.60;6.40;;;;;;;18.07;70.54;100870.00;5159497;27;20057;-79
2021/05/28 05:24:29;;;;;;;15.90;6.80;;;;;;;18.59;69.01;100865.84;5159388;27;20065;-79
2021/05/28 05:27:33;;;;;;;11.45;6.60;;;;;;;19.48;66.70;100876.41;5159416;27;20050;-79
2021/05/28 05:30:38;;;;;;;12.57;6.45;;;;;;;20.32;64.19;100867.28;5159376;27;20116;-79
2021/05/28 05:33:43;;;;;;;11.85;5.80;;;;;;;21.44;60.63;100862.38;5159246;27;20061;-79
2021/05/28 05:36:47;;;;;;;11.68;6.00;;;;;;;22.56;56.75;100856.09;5158910;27;20394;-79
2021/05/28 05:39:51;;;;;;;10.52;5.80;;;;;;;23.72;52.70;100861.53;5159035;27;20397;-79
2021/05/28 05:42:56;;;;;;;7.00;4.95;;;;;;;24.95;49.70;100868.13;5159103;27;20066;-79
2021/05/28 05:46:02;;;;;;;13.10;7.07;;;;;;;25.57;46.64;100874.88;5158991;27;20050;-80
2021/05/28 05:49:07;;;;;;;10.82;7.68;;;;;;;25.98;45.82;100872.50;5146203;27;20489;-80
2021/05/28 05:52:11;;;;;;;18.00;9.18;;;;;;;26.42;44.94;100872.38;5158899;27;20050;-80
2021/05/28 05:55:17;;;;;;;14.27;7.40;;;;;;;25.33;46.51;100881.09;5146103;27;20046;-79
2021/05/28 05:58:21;;;;;;;16.52;11.75;;;;;;;25.49;47.78;100880.63;5157714;27;20054;-79
2021/05/28 06:01:26;;;;;;;17.73;11.15;;;;;;;25.10;48.19;100881.59;5158448;27;20043;-80
2021/05/28 06:04:30;;;;;;;20.63;15.10;;;;;;;24.71;50.02;100888.00;5158634;27;20043;-79
2021/05/28 06:07:34;;;;;;;26.88;16.85;;;;;;;25.44;48.24;100888.63;5158828;27;20039;-79
2021/05/28 06:10:38;;;;;;;25.52;16.67;;;;;;;25.34;48.38;100880.00;5158794;27;20035;-79
2021/05/28 06:13:43;;;;;;;28.95;16.25;;;;;;;25.64;48.24;100889.41;5145675;27;20043;-78
2021/05/28 06:16:47;;;;;;;23.08;17.05;;;;;;;26.25;46.09;100882.25;5158701;27;20050;-80
2021/05/28 06:19:52;;;;;;;21.40;15.93;;;;;;;27.31;43.95;100877.38;5158391;27;20042;-79
2021/05/28 06:22:57;;;;;;;22.08;14.88;;;;;;;28.01;42.23;100881.38;5158013;27;20039;-78
2021/05/28 06:26:01;;;;;;;29.13;15.05;;;;;;;27.81;42.71;100883.53;5145371;27;20038;-78
2021/05/28 06:29:07;;;;;;;22.17;13.93;;;;;;;27.77;42.61;100885.91;5145457;27;20401;-80
2021/05/28 06:32:11;;;;;;;17.70;13.80;;;;;;;28.02;42.55;100882.22;5158071;27;20043;-80
2021/05/28 06:35:15;;;;;;;23.63;14.50;;;;;;;30.20;38.18;100884.09;5158095;27;20047;-80
2021/05/28 06:38:21;;;;;;;20.45;13.80;;;;;;;31.89;34.68;100883.25;5158258;27;20038;-80
2021/05/28 06:41:25;;;;;;;18.10;14.13;;;;;;;32.99;33.46;100873.34;5158149;27;20381;-79
2021/05/28 06:44:30;;;;;;;19.50;13.82;;;;;;;32.89;33.10;100878.88;5157821;27;20039;-80
2021/05/28 06:47:34;;;;;;;21.38;15.68;;;;;;;31.74;34.69;100883.09;5158071;27;20042;-80
2021/05/28 06:50:41;;;;;;;14.25;12.55;;;;;;;32.49;34.10;100876.59;5144763;27;20031;-79
2021/05/28 06:53:46;;;;;;;14.90;12.63;;;;;;;33.24;32.85;100881.84;5157376;27;20457;-79
2021/05/28 06:56:50;;;;;;;17.35;13.05;;;;;;;31.23;35.65;100878.81;5144695;27;20042;-79
2021/05/28 06:59:55;;;;;;;17.58;11.93;;;;;;;30.76;36.16;100880.34;5157152;27;20477;-81
2021/05/28 07:02:59;;;;;;;15.95;11.32;;;;;;;29.09;38.80;100892.88;5157468;27;20042;-79
2021/05/28 07:06:24;;;;;;;12.93;10.45;;;;;;;28.09;41.21;100889.31;5157444;27;20046;-79
2021/05/28 07:09:28;;;;;;;13.55;10.50;;;;;;;26.92;43.86;100883.38;5157334;27;20050;-78
2021/05/28 07:12:33;;;;;;;14.48;9.15;;;;;;;27.21;43.62;100882.59;5157325;27;20050;-79
2021/05/28 07:15:38;;;;;;;14.73;10.23;;;;;;;29.87;38.86;100890.44;5157559;27;20046;-79
2021/05/28 07:18:43;;;;;;;12.98;9.55;;;;;;;30.65;36.72;100879.34;5157405;27;20042;-80
2021/05/28 07:21:48;;;;;;;12.85;8.65;;;;;;;30.59;36.64;100872.03;5156853;27;20053;-79
2021/05/28 07:24:52;;;;;;;13.65;8.10;;;;;;;31.65;35.56;100864.38;5144487;27;20386;-79
2021/05/28 07:27:58;;;;;;;11.35;7.68;;;;;;;35.08;30.21;100861.25;5156996;27;20050;-80
2021/05/28 07:31:03;;;;;;;11.07;6.68;;;;;;;37.36;26.83;100856.41;5144206;27;20123;-80
2021/05/28 07:34:07;;;;;;;9.75;5.30;;;;;;;36.54;27.49;100855.63;5156168;27;20054;-80
2021/05/28 07:37:11;;;;;;;12.82;5.25;;;;;;;35.34;29.08;100856.38;5156549;27;20044;-78
2021/05/28 07:40:16;;;;;;;7.75;4.32;;;;;;;36.67;26.82;100856.06;5156688;27;20053;-79
2021/05/28 07:43:21;;;;;;;9.13;4.40;;;;;;;37.65;26.30;100856.34;5156670;27;20393;-78
2021/05/28 07:46:25;;;;;;;6.40;3.60;;;;;;;39.73;24.09;100855.09;5143903;27;20397;-79
2021/05/28 07:49:30;;;;;;;6.93;3.97;;;;;;;37.56;26.25;100852.53;5156503;27;20488;-79
2021/05/28 07:52:34;;;;;;;8.30;3.80;;;;;;;37.62;26.05;100846.56;5143779;27;20045;-79
2021/05/28 07:55:40;;;;;;;7.65;3.75;;;;;;;36.36;26.89;100853.53;5156436;27;20042;-79
2021/05/28 07:58:44;;;;;;;7.13;4.15;;;;;;;36.98;26.92;100847.09;5156409;27;20045;-79
2021/05/28 08:01:49;;;;;;;7.82;3.80;;;;;;;37.74;26.65;100848.91;5156109;27;20041;-79
2021/05/28 08:04:54;;;;;;;8.70;4.10;;;;;;;37.07;27.28;100850.06;5156311;27;20053;-79
2021/05/28 08:07:59;;;;;;;6.57;3.40;;;;;;;38.60;25.39;100856.78;5156222;27;20049;-79
2021/05/28 08:11:04;;;;;;;6.13;4.10;;;;;;;39.31;24.10;100855.47;5155830;27;20484;-79
2021/05/28 08:14:09;;;;;;;7.72;3.75;;;;;;;35.45;28.63;100858.00;5143287;27;20058;-79
2021/05/28 08:17:13;;;;;;;5.75;3.50;;;;;;;35.17;29.04;100865.09;5156107;27;20045;-79
2021/05/28 08:20:18;;;;;;;7.88;4.00;;;;;;;32.14;33.32;100866.88;5156060;27;20050;-79
2021/05/28 08:23:22;;;;;;;7.40;3.85;;;;;;;29.72;37.25;100867.97;5143476;27;20050;-79
2021/05/28 08:26:27;;;;;;;6.50;3.47;;;;;;;27.69;41.30;100864.19;5155990;27;20500;-79
2021/05/28 08:29:31;;;;;;;8.80;4.55;;;;;;;26.86;43.67;100862.25;5155792;27;20476;-80
2021/05/28 08:32:36;;;;;;;6.05;4.53;;;;;;;27.04;43.65;100853.97;5155896;27;20050;-79
2021/05/28 08:35:41;;;;;;;6.95;4.50;;;;;;;26.19;45.17;100850.16;5156090;27;20053;-79
2021/05/28 08:38:46;;;;;;;6.93;4.40;;;;;;;25.92;45.58;100856.03;5155793;27;20167;-79
2021/05/28 08:41:51;;;;;;;11.40;4.93;;;;;;;25.30;46.43;100848.53;5155733;27;20050;-78
2021/05/28 08:44:56;;;;;;;6.90;4.97;;;;;;;25.28;47.19;100854.25;5155696;27;20484;-79
2021/05/28 08:48:01;;;;;;;9.32;4.97;;;;;;;25.58;46.92;100854.53;5155920;27;20451;-79
2021/05/28 08:51:06;;;;;;;8.90;5.38;;;;;;;24.67;49.30;100852.91;5142889;27;20053;-79
2021/05/28 08:54:10;;;;;;;7.70;4.75;;;;;;;24.96;50.37;100847.81;5155835;27;20046;-79
2021/05/28 08:57:14;;;;;;;11.38;5.68;;;;;;;24.56;49.13;100851.69;5155090;27;20073;-78
2021/05/28 09:00:19;;;;;;;11.68;5.25;;;;;;;24.01;51.28;100850.19;5155608;27;20508;-79
2021/05/28 09:03:29;;;;;;;6.38;4.47;;;;;;;24.09;50.98;100855.50;5155559;27;20049;-79
2021/05/28 09:06:45;;;;;;;8.43;4.78;;;;;;;24.07;51.17;100852.13;5155521;27;20062;-79
2021/05/28 09:09:50;;;;;;;7.43;5.45;;;;;;;23.93;51.15;100847.66;5142514;27;20524;-79
2021/05/28 09:13:15;;;;;;;10.70;5.40;;;;;;;23.75;52.48;100839.19;5155356;27;20066;-78
2021/05/28 09:16:26;;;;;;;15.90;5.65;;;;;;;23.61;51.96;100854.75;5155690;27;20045;-79
2021/05/28 09:19:31;;;;;;;11.25;5.57;;;;;;;23.69;52.69;100851.84;5142624;27;20045;-79
2021/05/28 09:22:38;;;;;;;10.30;5.35;;;;;;;23.86;50.48;100855.03;5155429;27;20057;-78
2021/05/28 09:26:01;;;;;;;7.90;4.95;;;;;;;24.32;50.13;100844.13;5155352;27;20473;-79
2021/05/28 09:29:07;;;;;;;8.32;5.07;;;;;;;24.56;49.97;100851.69;5155513;27;20057;-79
2021/05/28 09:32:23;;;;;;;7.50;4.85;;;;;;;24.40;49.36;100835.66;5155207;27;20117;-79
2021/05/28 09:35:30;;;;;;;8.55;5.57;;;;;;;23.76;51.84;100830.75;5142529;27;20054;-78
2021/05/28 09:39:06;;;;;;;11.73;5.50;;;;;;;23.91;51.91;100831.41;5155227;27;20054;-79
2021/05/28 09:42:11;;;;;;;9.68;5.75;;;;;;;24.27;50.39;100824.69;5155178;27;20066;-79
2021/05/28 09:45:21;;;;;;;7.22;4.78;;;;;;;24.06;49.72;100830.34;5155178;27;20061;-79
2021/05/28 09:48:31;;;;;;;7.13;4.32;;;;;;;24.29;48.27;100831.66;5142422;27;20054;-79
2021/05/28 09:51:35;;;;;;;7.05;4.97;;;;;;;24.34;49.89;100831.03;5141936;27;20057;-79
2021/05/28 09:54:58;;;;;;;8.48;5.13;;;;;;;24.05;49.90;100840.47;5155055;27;20138;-79
2021/05/28 09:58:03;;;;;;;;;;;;;;;23.89;50.89;100841.75;5156584;27;20042;-78
2021/05/28 10:01:09;;;;;;;11.55;5.10;;;;;;;24.24;49.52;100831.47;5158688;27;19915;-79
2021/05/28 10:04:13;;;;;;;12.00;4.60;;;;;;;24.36;50.32;100834.41;5158701;27;20046;-79
2021/05/28 10:07:17;;;;;;;10.23;5.35;;;;;;;23.92;50.93;100819.38;5158963;27;20062;-78
2021/05/28 10:10:22;;;;;;;10.32;4.90;;;;;;;24.04;50.92;100821.50;5158517;27;20053;-79
2021/05/28 10:13:28;;;;;;;9.57;4.60;;;;;;;24.25;50.25;100821.31;5158573;27;20054;-79
2021/05/28 10:16:32;;;;;;;11.73;5.10;;;;;;;24.13;51.15;100817.50;5158513;27;20058;-78
2021/05/28 10:19:37;;;;;;;8.93;4.90;;;;;;;24.29;49.81;100808.88;5158412;27;20115;-78
2021/05/28 10:22:42;;;;;;;8.15;4.63;;;;;;;24.32;48.62;100805.69;5158308;27;20054;-77
2021/05/28 10:25:46;;;;;;;9.98;5.45;;;;;;;24.24;49.39;100811.41;5158538;27;20057;-80
2021/05/28 10:28:52;;;;;;;6.93;4.20;;;;;;;23.96;49.12;100803.34;5158204;27;20049;-80
2021/05/28 10:32:12;;;;;;;11.18;5.20;;;;;;;23.68;51.24;100798.03;5158192;27;20053;-78
2021/05/28 10:35:21;;;;;;;14.40;4.80;;;;;;;23.79;51.73;100791.97;5158340;27;20045;-78
2021/05/28 10:38:33;;;;;;;8.52;4.53;;;;;;;23.87;51.80;100793.66;5158043;27;20467;-79
2021/05/28 10:41:49;;;;;;;8.13;4.10;;;;;;;23.98;51.27;100784.78;5158252;27;20480;-78
2021/05/28 10:44:53;;;;;;;6.95;4.25;;;;;;;23.78;49.97;100786.66;5157819;27;20385;-78
2021/05/28 10:47:57;;;;;;;12.07;3.75;;;;;;;23.87;48.57;100766.22;5145173;27;20049;-79
2021/05/28 10:51:03;;;;;;;9.23;4.00;;;;;;;23.91;49.58;100768.34;5157708;27;20077;-79
2021/05/28 10:54:07;;;;;;;17.42;4.78;;;;;;;24.13;50.67;100776.38;5157733;27;20389;-79
2021/05/28 10:57:19;;;;;;;6.10;3.80;;;;;;;24.27;48.97;100767.09;5157314;27;20046;-79
2021/05/28 11:00:30;;;;;;;9.05;4.10;;;;;;;23.97;49.00;100774.03;5157547;27;20046;-79
2021/05/28 11:03:47;;;;;;;8.30;3.92;;;;;;;24.05;48.89;100782.06;5157493;27;20058;-79
2021/05/28 11:06:55;;;;;;;7.38;3.97;;;;;;;23.85;48.23;100776.53;5157433;27;20061;-79
2021/05/28 11:10:17;;;;;;;7.95;3.75;;;;;;;23.88;48.10;100763.25;5156332;27;20049;-79
2021/05/28 11:13:21;;;;;;;10.50;4.40;;;;;;;24.14;48.13;100753.38;5157605;27;20049;-79
2021/05/28 11:16:26;;;;;;;9.48;3.58;;;;;;;24.22;49.13;100747.66;5157330;27;20066;-79
2021/05/28 11:19:32;;;;;;;8.77;4.13;;;;;;;24.27;48.04;100743.22;5157246;27;20487;-78
2021/05/28 11:22:41;;;;;;;6.80;3.50;;;;;;;24.30;48.33;100742.78;5157188;27;20045;-79
2021/05/28 11:25:47;;;;;;;14.25;4.53;;;;;;;24.28;48.40;100735.81;5144026;27;20050;-79
2021/05/28 11:28:58;;;;;;;12.93;4.13;;;;;;;24.45;50.02;100726.06;5157025;27;20049;-79
2021/05/28 11:32:26;;;;;;;8.88;4.30;;;;;;;24.53;49.73;100721.19;5156855;27;20050;-79
2021/05/28 11:35:42;;;;;;;8.48;4.55;;;;;;;24.44;49.72;100724.41;5157106;27;20054;-78
2021/05/28 11:39:02;;;;;;;6.75;4.40;;;;;;;24.30;50.17;100720.84;5156860;27;20047;-79
2021/05/28 11:42:07;;;;;;;8.23;5.25;;;;;;;24.32;49.52;100728.88;5156812;27;20058;-79
2021/05/28 11:45:14;;;;;;;9.98;4.90;;;;;;;24.28;50.21;100722.09;5144186;27;20046;-79
2021/05/28 11:48:22;;;;;;;11.80;5.30;;;;;;;24.12;50.42;100711.59;5156396;27;20050;-79
2021/05/28 11:51:27;;;;;;;6.28;3.75;;;;;;;24.29;51.54;100719.16;5156564;27;20077;-78
2021/05/28 11:54:33;;;;;;;12.07;5.13;;;;;;;24.34;50.05;100713.03;5156527;27;20112;-79
2021/05/28 11:57:39;;;;;;;13.63;5.90;;;;;;;24.23;49.86;100713.66;5155930;27;20046;-79
2021/05/28 12:00:45;;;;;;;8.80;5.28;;;;;;;24.08;49.23;100713.06;5143579;27;20038;-78
2021/05/28 12:03:50;;;;;;;8.05;4.97;;;;;;;24.24;49.86;100712.63;5156355;27;20495;-78
2021/05/28 12:06:55;;;;;;;9.77;5.38;;;;;;;24.32;49.43;100710.47;5156301;27;20370;-79
2021/05/28 12:10:07;;;;;;;8.75;5.25;;;;;;;24.27;49.83;100703.97;5156380;27;20037;-79
2021/05/28 12:13:23;;;;;;;8.05;4.80;;;;;;;24.33;49.62;100703.09;5155914;27;20042;-79
2021/05/28 12:16:28;;;;;;;11.52;5.50;;;;;;;24.45;48.96;100687.66;5156191;27;20057;-79
2021/05/28 12:19:39;;;;;;;7.60;4.47;;;;;;;24.47;49.50;100689.13;5155847;27;20492;-79
2021/05/28 12:22:59;;;;;;;9.13;5.60;;;;;;;24.54;48.59;100694.59;5143407;27;20042;-79
2021/05/28 12:26:04;;;;;;;10.27;6.25;;;;;;;24.66;48.67;100681.03;5155683;27;20045;-79
2021/05/28 12:29:08;;;;;;;10.57;4.95;;;;;;;24.65;49.83;100687.56;5155764;27;20065;-79
2021/05/28 12:32:13;;;;;;;10.70;5.20;;;;;;;24.64;48.94;100686.72;5142922;27;20053;-77
2021/05/28 12:35:20;;;;;;;9.85;5.03;;;;;;;24.46;47.35;100686.59;5155896;27;20046;-78
2021/05/28 12:38:33;;;;;;;14.43;5.10;;;;;;;24.54;47.78;100675.38;5143105;27;20092;-78
2021/05/28 12:41:39;;;;;;;11.70;5.63;;;;;;;24.59;48.36;100687.38;5155794;27;20046;-78
2021/05/28 12:44:43;;;;;;;12.75;6.38;;;;;;;24.43;47.37;100676.91;5155784;27;20042;-79
2021/05/28 12:47:48;;;;;;;14.95;5.93;;;;;;;24.40;47.69;100684.69;5155974;27;20051;-78
2021/05/28 12:50:52;;;;;;;9.80;5.35;;;;;;;24.55;47.46;100688.88;5155614;27;20054;-78
2021/05/28 12:53:59;;;;;;;11.77;6.55;;;;;;;24.56;47.07;100676.00;5155690;27;20053;-79
2021/05/28 12:57:06;;;;;;;10.45;5.95;;;;;;;24.64;47.11;100677.66;5155236;27;20062;-79
2021/05/28 13:00:11;;;;;;;14.32;5.38;;;;;;;24.72;48.34;100685.63;5142925;27;20157;-79
2021/05/28 13:03:41;;;;;;;15.95;5.70;;;;;;;24.54;47.84;100673.47;5142493;27;20397;-79
2021/05/28 13:06:56;;;;;;;11.57;5.63;;;;;;;24.69;47.54;100675.91;5155495;27;20042;-78
2021/05/28 13:10:20;;;;;;;10.00;5.50;;;;;;;24.79;48.14;100662.59;5155281;27;20046;-78
2021/05/28 13:13:25;;;;;;;11.30;4.63;;;;;;;24.79;48.50;100657.09;5155493;27;20058;-79
2021/05/28 13:16:30;;;;;;;9.68;4.80;;;;;;;24.95;47.48;100653.84;5155482;27;20066;-79
2021/05/28 13:19:35;;;;;;;7.93;3.75;;;;;;;25.17;47.93;100663.44;5155447;27;20045;-79
2021/05/28 13:22:44;;;;;;;8.30;4.40;;;;;;;25.23;47.54;100652.63;5155427;27;20042;-79
2021/05/28 13:25:49;;;;;;;8.23;3.60;;;;;;;25.23;47.72;100654.28;5155394;27;20054;-79
2021/05/28 13:28:53;;;;;;;8.57;3.88;;;;;;;25.23;46.32;100646.03;5142634;27;20476;-79
2021/05/28 13:32:01;;;;;;;8.02;4.25;;;;;;;25.06;45.88;100650.38;5156266;27;20069;-79
2021/05/28 13:35:09;;;;;;;9.27;3.72;;;;;;;25.13;47.29;100634.69;5159248;27;20053;-78
2021/05/28 13:38:14;;;;;;;7.50;3.88;;;;;;;24.95;47.80;100631.88;5158818;27;20042;-79
2021/05/28 13:41:22;;;;;;;7.90;3.78;;;;;;;24.96;47.89;100630.00;5159118;27;20480;-79
2021/05/28 13:44:26;;;;;;;13.00;3.83;;;;;;;25.05;47.86;100639.63;5159078;27;20046;-79
2021/05/28 13:47:31;;;;;;;8.98;4.40;;;;;;;24.91;47.54;100635.31;5158935;27;20042;-79
2021/05/28 13:50:37;;;;;;;11.18;3.70;;;;;;;24.94;48.67;100632.09;5158807;27;20061;-79
2021/05/28 13:53:41;;;;;;;8.73;3.63;;;;;;;25.06;48.50;100631.16;5158721;27;20073;-79
2021/05/28 13:56:47;;;;;;;8.48;3.47;;;;;;;25.14;47.33;100632.78;5157464;27;20485;-79
2021/05/28 13:59:52;;;;;;;11.68;3.20;;;;;;;25.19;46.78;100627.47;5158759;27;20053;-78
2021/05/28 14:02:58;;;;;;;7.35;3.13;;;;;;;25.44;46.65;100636.59;5158733;27;20049;-79
2021/05/28 14:06:02;;;;;;;6.95;3.78;;;;;;;25.30;46.95;100635.00;5158670;27;20492;-78
2021/05/28 14:09:08;;;;;;;11.23;3.70;;;;;;;25.15;46.09;100632.59;5158624;27;20054;-79
2021/05/28 14:12:13;;;;;;;8.20;3.67;;;;;;;25.22;46.57;100632.53;5145753;27;20393;-79
2021/05/28 14:15:19;;;;;;;11.68;3.83;;;;;;;25.16;45.48;100622.41;5158513;27;20046;-79
2021/05/28 14:18:24;;;;;;;8.25;3.70;;;;;;;25.21;45.11;100619.84;5158447;27;20050;-80
2021/05/28 14:21:28;;;;;;;6.97;3.45;;;;;;;25.25;45.17;100626.59;5158359;27;20050;-80